sensor_id;sensor_type;location;lat;lon;timestamp;P1;durP1;ratioP1;P2;durP2;ratioP2
19664;SDS011;9980;51.020;7.772;2022-07-23T00:01:38;11.77;;;9.27;;
19664;SDS011;9980;51.020;7.772;2022-07-23T00:04:07;10.73;;;8.93;;
19664;SDS011;9980;51.020;7.772;2022-07-23T00:06:34;11.43;;;8.63;;
19664;SDS011;9980;51.020;7.772;2022-07-23T00:09:01;15.40;;;9.37;;
19664;SDS011;9980;51.020;7.772;2022-07-23T00:11:29;16.03;;;9.23;;
19664;SDS011;9980;51.020;7.772;2022-07-23T00:13:56;11.53;;;9.43;;
19664;SDS011;9980;51.020;7.772;2022-07-23T00:16:24;12.67;;;9.63;;
19664;SDS011;9980;51.020;7.772;2022-07-23T00:18:51;13.17;;;9.80;;
19664;SDS011;9980;51.020;7.772;2022-07-23T00:21:18;12.97;;;9.07;;
19664;SDS011;9980;51.020;7.772;2022-07-23T00:23:45;15.10;;;10.37;;
19664;SDS011;9980;51.020;7.772;2022-07-23T00:26:12;13.03;;;10.67;;
19664;SDS011;9980;51.020;7.772;2022-07-23T00:28:40;14.03;;;10.37;;
19664;SDS011;9980;51.020;7.772;2022-07-23T00:31:07;11.27;;;8.90;;
19664;SDS011;9980;51.020;7.772;2022-07-23T00:33:34;11.40;;;9.27;;
19664;SDS011;9980;51.020;7.772;2022-07-23T00:36:01;14.57;;;10.73;;
19664;SDS011;9980;51.020;7.772;2022-07-23T00:38:28;9.97;;;8.63;;
19664;SDS011;9980;51.020;7.772;2022-07-23T00:40:56;9.43;;;8.13;;
19664;SDS011;9980;51.020;7.772;2022-07-23T00:43:24;12.93;;;10.80;;
19664;SDS011;9980;51.020;7.772;2022-07-23T00:45:51;10.80;;;9.70;;
19664;SDS011;9980;51.020;7.772;2022-07-23T00:48:18;9.70;;;8.47;;
19664;SDS011;9980;51.020;7.772;2022-07-23T00:50:45;12.13;;;10.23;;
19664;SDS011;9980;51.020;7.772;2022-07-23T00:53:12;12.60;;;10.53;;
19664;SDS011;9980;51.020;7.772;2022-07-23T00:55:39;13.03;;;10.73;;
19664;SDS011;9980;51.020;7.772;2022-07-23T00:58:06;13.37;;;11.27;;
19664;SDS011;9980;51.020;7.772;2022-07-23T01:00:34;10.77;;;9.20;;
19664;SDS011;9980;51.020;7.772;2022-07-23T01:03:02;10.40;;;9.30;;
19664;SDS011;9980;51.020;7.772;2022-07-23T01:05:29;10.17;;;9.17;;
19664;SDS011;9980;51.020;7.772;2022-07-23T01:07:56;11.50;;;9.33;;
19664;SDS011;9980;51.020;7.772;2022-07-23T01:10:23;13.73;;;11.57;;
19664;SDS011;9980;51.020;7.772;2022-07-23T01:12:59;9.70;;;8.80;;
19664;SDS011;9980;51.020;7.772;2022-07-23T01:15:36;13.83;;;11.27;;
19664;SDS011;9980;51.020;7.772;2022-07-23T01:18:05;12.27;;;10.77;;
19664;SDS011;9980;51.020;7.772;2022-07-23T01:20:35;11.60;;;9.13;;
19664;SDS011;9980;51.020;7.772;2022-07-23T01:23:03;14.00;;;11.60;;
19664;SDS011;9980;51.020;7.772;2022-07-23T01:25:30;12.57;;;11.13;;
19664;SDS011;9980;51.020;7.772;2022-07-23T01:28:00;9.57;;;8.57;;
19664;SDS011;9980;51.020;7.772;2022-07-23T01:30:27;14.07;;;11.43;;
19664;SDS011;9980;51.020;7.772;2022-07-23T01:32:56;13.13;;;10.57;;
19664;SDS011;9980;51.020;7.772;2022-07-23T01:35:23;11.90;;;10.40;;
19664;SDS011;9980;51.020;7.772;2022-07-23T01:37:54;16.93;;;11.73;;
19664;SDS011;9980;51.020;7.772;2022-07-23T01:40:21;14.77;;;10.93;;
19664;SDS011;9980;51.020;7.772;2022-07-23T01:42:50;15.77;;;11.77;;
19664;SDS011;9980;51.020;7.772;2022-07-23T01:45:18;14.77;;;9.50;;
19664;SDS011;9980;51.020;7.772;2022-07-23T01:47:48;14.07;;;10.77;;
19664;SDS011;9980;51.020;7.772;2022-07-23T01:50:16;12.93;;;11.53;;
19664;SDS011;9980;51.020;7.772;2022-07-23T01:52:52;12.03;;;10.07;;
19664;SDS011;9980;51.020;7.772;2022-07-23T01:55:19;12.83;;;10.90;;
19664;SDS011;9980;51.020;7.772;2022-07-23T01:57:48;13.47;;;11.13;;
19664;SDS011;9980;51.020;7.772;2022-07-23T02:00:18;13.83;;;11.47;;
19664;SDS011;9980;51.020;7.772;2022-07-23T02:02:47;12.40;;;10.67;;
19664;SDS011;9980;51.020;7.772;2022-07-23T02:05:14;11.30;;;9.77;;
19664;SDS011;9980;51.020;7.772;2022-07-23T02:07:43;14.30;;;11.47;;
19664;SDS011;9980;51.020;7.772;2022-07-23T02:10:11;15.80;;;11.90;;
19664;SDS011;9980;51.020;7.772;2022-07-23T02:12:38;15.90;;;11.77;;
19664;SDS011;9980;51.020;7.772;2022-07-23T02:15:05;19.07;;;13.07;;
19664;SDS011;9980;51.020;7.772;2022-07-23T02:17:35;15.33;;;12.43;;
19664;SDS011;9980;51.020;7.772;2022-07-23T02:20:02;15.90;;;11.27;;
19664;SDS011;9980;51.020;7.772;2022-07-23T02:22:30;15.23;;;11.07;;
19664;SDS011;9980;51.020;7.772;2022-07-23T02:24:57;17.77;;;13.47;;
19664;SDS011;9980;51.020;7.772;2022-07-23T02:27:24;17.83;;;12.00;;
19664;SDS011;9980;51.020;7.772;2022-07-23T02:29:52;13.50;;;10.90;;
19664;SDS011;9980;51.020;7.772;2022-07-23T02:32:19;19.17;;;10.80;;
19664;SDS011;9980;51.020;7.772;2022-07-23T02:34:47;15.80;;;13.27;;
19664;SDS011;9980;51.020;7.772;2022-07-23T02:37:15;20.63;;;13.17;;
19664;SDS011;9980;51.020;7.772;2022-07-23T02:39:42;14.33;;;11.30;;
19664;SDS011;9980;51.020;7.772;2022-07-23T02:42:11;9.70;;;8.70;;
19664;SDS011;9980;51.020;7.772;2022-07-23T02:44:39;14.77;;;10.67;;
19664;SDS011;9980;51.020;7.772;2022-07-23T02:47:07;13.07;;;11.27;;
19664;SDS011;9980;51.020;7.772;2022-07-23T02:49:34;14.50;;;11.90;;
19664;SDS011;9980;51.020;7.772;2022-07-23T02:52:04;17.93;;;13.33;;
19664;SDS011;9980;51.020;7.772;2022-07-23T02:54:31;18.07;;;13.37;;
19664;SDS011;9980;51.020;7.772;2022-07-23T02:57:02;20.43;;;15.73;;
19664;SDS011;9980;51.020;7.772;2022-07-23T02:59:30;18.57;;;12.80;;
19664;SDS011;9980;51.020;7.772;2022-07-23T03:01:57;15.63;;;12.77;;
19664;SDS011;9980;51.020;7.772;2022-07-23T03:04:24;16.97;;;12.70;;
19664;SDS011;9980;51.020;7.772;2022-07-23T03:06:51;19.47;;;13.53;;
19664;SDS011;9980;51.020;7.772;2022-07-23T03:09:18;15.33;;;11.87;;
19664;SDS011;9980;51.020;7.772;2022-07-23T03:11:45;15.73;;;11.70;;
19664;SDS011;9980;51.020;7.772;2022-07-23T03:14:12;19.07;;;13.73;;
19664;SDS011;9980;51.020;7.772;2022-07-23T03:16:40;19.50;;;13.40;;
19664;SDS011;9980;51.020;7.772;2022-07-23T03:19:07;30.40;;;16.60;;
19664;SDS011;9980;51.020;7.772;2022-07-23T03:21:34;15.40;;;11.30;;
19664;SDS011;9980;51.020;7.772;2022-07-23T03:24:02;16.07;;;11.53;;
19664;SDS011;9980;51.020;7.772;2022-07-23T03:26:29;17.10;;;11.27;;
19664;SDS011;9980;51.020;7.772;2022-07-23T03:28:56;16.83;;;13.60;;
19664;SDS011;9980;51.020;7.772;2022-07-23T03:31:24;13.07;;;10.37;;
19664;SDS011;9980;51.020;7.772;2022-07-23T03:33:51;14.73;;;11.00;;
19664;SDS011;9980;51.020;7.772;2022-07-23T03:36:18;21.17;;;12.10;;
19664;SDS011;9980;51.020;7.772;2022-07-23T03:38:48;14.23;;;11.37;;
19664;SDS011;9980;51.020;7.772;2022-07-23T03:41:17;14.50;;;10.73;;
19664;SDS011;9980;51.020;7.772;2022-07-23T03:43:45;12.10;;;9.73;;
19664;SDS011;9980;51.020;7.772;2022-07-23T03:46:12;13.20;;;11.27;;
19664;SDS011;9980;51.020;7.772;2022-07-23T03:48:40;9.93;;;8.63;;
19664;SDS011;9980;51.020;7.772;2022-07-23T03:51:07;13.83;;;9.30;;
19664;SDS011;9980;51.020;7.772;2022-07-23T03:53:34;10.77;;;8.23;;
19664;SDS011;9980;51.020;7.772;2022-07-23T03:56:03;13.67;;;9.37;;
19664;SDS011;9980;51.020;7.772;2022-07-23T03:58:30;13.77;;;10.20;;
19664;SDS011;9980;51.020;7.772;2022-07-23T04:00:57;11.80;;;8.80;;
19664;SDS011;9980;51.020;7.772;2022-07-23T04:03:24;9.67;;;8.67;;
19664;SDS011;9980;51.020;7.772;2022-07-23T04:05:51;13.70;;;10.40;;
19664;SDS011;9980;51.020;7.772;2022-07-23T04:08:20;9.43;;;8.10;;
19664;SDS011;9980;51.020;7.772;2022-07-23T04:10:50;14.90;;;11.90;;
19664;SDS011;9980;51.020;7.772;2022-07-23T04:13:17;12.77;;;9.87;;
19664;SDS011;9980;51.020;7.772;2022-07-23T04:15:44;14.17;;;10.77;;
19664;SDS011;9980;51.020;7.772;2022-07-23T04:18:11;18.83;;;11.90;;
19664;SDS011;9980;51.020;7.772;2022-07-23T04:20:45;16.50;;;11.03;;
19664;SDS011;9980;51.020;7.772;2022-07-23T04:23:14;13.23;;;10.80;;
19664;SDS011;9980;51.020;7.772;2022-07-23T04:25:41;12.77;;;9.67;;
19664;SDS011;9980;51.020;7.772;2022-07-23T04:28:08;12.23;;;9.93;;
19664;SDS011;9980;51.020;7.772;2022-07-23T04:30:36;17.17;;;11.57;;
19664;SDS011;9980;51.020;7.772;2022-07-23T04:33:05;17.07;;;11.57;;
19664;SDS011;9980;51.020;7.772;2022-07-23T04:35:35;16.70;;;12.83;;
19664;SDS011;9980;51.020;7.772;2022-07-23T04:38:11;16.53;;;12.00;;
19664;SDS011;9980;51.020;7.772;2022-07-23T04:40:39;15.07;;;11.60;;
19664;SDS011;9980;51.020;7.772;2022-07-23T04:43:06;16.90;;;11.70;;
19664;SDS011;9980;51.020;7.772;2022-07-23T04:45:39;16.00;;;11.70;;
19664;SDS011;9980;51.020;7.772;2022-07-23T04:48:09;12.77;;;11.13;;
19664;SDS011;9980;51.020;7.772;2022-07-23T04:50:36;14.50;;;12.23;;
19664;SDS011;9980;51.020;7.772;2022-07-23T04:53:03;16.53;;;13.97;;
19664;SDS011;9980;51.020;7.772;2022-07-23T04:55:31;18.77;;;12.30;;
19664;SDS011;9980;51.020;7.772;2022-07-23T04:57:58;19.37;;;13.83;;
19664;SDS011;9980;51.020;7.772;2022-07-23T05:00:25;17.00;;;13.13;;
19664;SDS011;9980;51.020;7.772;2022-07-23T05:02:52;17.97;;;13.27;;
19664;SDS011;9980;51.020;7.772;2022-07-23T05:05:19;16.50;;;12.53;;
19664;SDS011;9980;51.020;7.772;2022-07-23T05:07:46;16.03;;;13.63;;
19664;SDS011;9980;51.020;7.772;2022-07-23T05:10:13;15.97;;;13.03;;
19664;SDS011;9980;51.020;7.772;2022-07-23T05:12:40;18.47;;;15.17;;
19664;SDS011;9980;51.020;7.772;2022-07-23T05:15:07;20.50;;;14.33;;
19664;SDS011;9980;51.020;7.772;2022-07-23T05:17:34;20.97;;;15.20;;
19664;SDS011;9980;51.020;7.772;2022-07-23T05:20:08;18.70;;;15.07;;
19664;SDS011;9980;51.020;7.772;2022-07-23T05:22:36;20.97;;;14.87;;
19664;SDS011;9980;51.020;7.772;2022-07-23T05:25:03;19.70;;;14.40;;
19664;SDS011;9980;51.020;7.772;2022-07-23T05:27:31;18.67;;;14.83;;
19664;SDS011;9980;51.020;7.772;2022-07-23T05:29:58;19.57;;;14.37;;
19664;SDS011;9980;51.020;7.772;2022-07-23T05:32:25;20.90;;;14.90;;
19664;SDS011;9980;51.020;7.772;2022-07-23T05:35:02;17.83;;;13.73;;
19664;SDS011;9980;51.020;7.772;2022-07-23T05:37:33;20.43;;;14.50;;
19664;SDS011;9980;51.020;7.772;2022-07-23T05:40:03;18.13;;;13.60;;
19664;SDS011;9980;51.020;7.772;2022-07-23T05:42:34;17.53;;;13.37;;
19664;SDS011;9980;51.020;7.772;2022-07-23T05:45:04;19.17;;;13.47;;
19664;SDS011;9980;51.020;7.772;2022-07-23T05:47:39;20.17;;;14.33;;
19664;SDS011;9980;51.020;7.772;2022-07-23T05:50:15;16.57;;;13.60;;
19664;SDS011;9980;51.020;7.772;2022-07-23T05:52:46;16.47;;;12.90;;
19664;SDS011;9980;51.020;7.772;2022-07-23T05:55:37;14.20;;;12.67;;
19664;SDS011;9980;51.020;7.772;2022-07-23T05:58:05;16.00;;;12.67;;
19664;SDS011;9980;51.020;7.772;2022-07-23T06:00:33;18.20;;;12.77;;
19664;SDS011;9980;51.020;7.772;2022-07-23T06:03:00;16.67;;;12.10;;
19664;SDS011;9980;51.020;7.772;2022-07-23T06:05:29;17.00;;;12.03;;
19664;SDS011;9980;51.020;7.772;2022-07-23T06:07:56;16.73;;;12.20;;
19664;SDS011;9980;51.020;7.772;2022-07-23T06:10:25;13.97;;;10.70;;
19664;SDS011;9980;51.020;7.772;2022-07-23T06:12:52;12.67;;;10.10;;
19664;SDS011;9980;51.020;7.772;2022-07-23T06:15:27;12.27;;;9.30;;
19664;SDS011;9980;51.020;7.772;2022-07-23T06:17:54;8.90;;;7.63;;
19664;SDS011;9980;51.020;7.772;2022-07-23T06:20:22;9.80;;;8.27;;
19664;SDS011;9980;51.020;7.772;2022-07-23T06:22:49;8.93;;;7.43;;
19664;SDS011;9980;51.020;7.772;2022-07-23T06:25:16;10.73;;;7.47;;
19664;SDS011;9980;51.020;7.772;2022-07-23T06:27:45;7.33;;;6.20;;
19664;SDS011;9980;51.020;7.772;2022-07-23T06:30:13;6.77;;;5.57;;
19664;SDS011;9980;51.020;7.772;2022-07-23T06:32:47;9.90;;;5.97;;
19664;SDS011;9980;51.020;7.772;2022-07-23T06:35:15;10.27;;;5.40;;
19664;SDS011;9980;51.020;7.772;2022-07-23T06:37:45;6.20;;;5.03;;
19664;SDS011;9980;51.020;7.772;2022-07-23T06:40:14;6.37;;;4.23;;
19664;SDS011;9980;51.020;7.772;2022-07-23T06:42:41;5.40;;;4.80;;
19664;SDS011;9980;51.020;7.772;2022-07-23T06:45:15;6.57;;;4.70;;
19664;SDS011;9980;51.020;7.772;2022-07-23T06:47:42;7.07;;;4.50;;
19664;SDS011;9980;51.020;7.772;2022-07-23T06:50:09;4.37;;;3.80;;
19664;SDS011;9980;51.020;7.772;2022-07-23T06:52:39;5.27;;;3.73;;
19664;SDS011;9980;51.020;7.772;2022-07-23T06:55:08;5.73;;;4.10;;
19664;SDS011;9980;51.020;7.772;2022-07-23T06:57:37;5.50;;;4.50;;
19664;SDS011;9980;51.020;7.772;2022-07-23T07:00:05;5.90;;;4.20;;
19664;SDS011;9980;51.020;7.772;2022-07-23T07:02:33;6.20;;;4.57;;
19664;SDS011;9980;51.020;7.772;2022-07-23T07:05:01;6.43;;;4.30;;
19664;SDS011;9980;51.020;7.772;2022-07-23T07:07:31;5.73;;;4.47;;
19664;SDS011;9980;51.020;7.772;2022-07-23T07:09:59;5.10;;;3.73;;
19664;SDS011;9980;51.020;7.772;2022-07-23T07:12:28;4.70;;;4.17;;
19664;SDS011;9980;51.020;7.772;2022-07-23T07:14:55;4.17;;;3.63;;
19664;SDS011;9980;51.020;7.772;2022-07-23T07:17:23;4.20;;;3.50;;
19664;SDS011;9980;51.020;7.772;2022-07-23T07:19:50;4.93;;;3.73;;
19664;SDS011;9980;51.020;7.772;2022-07-23T07:22:17;6.20;;;3.93;;
19664;SDS011;9980;51.020;7.772;2022-07-23T07:24:44;4.60;;;3.60;;
19664;SDS011;9980;51.020;7.772;2022-07-23T07:27:11;8.53;;;3.83;;
19664;SDS011;9980;51.020;7.772;2022-07-23T07:29:38;8.17;;;4.50;;
19664;SDS011;9980;51.020;7.772;2022-07-23T07:32:05;5.20;;;3.77;;
19664;SDS011;9980;51.020;7.772;2022-07-23T07:34:32;3.63;;;3.10;;
19664;SDS011;9980;51.020;7.772;2022-07-23T07:36:59;4.10;;;3.70;;
19664;SDS011;9980;51.020;7.772;2022-07-23T07:39:26;4.77;;;3.97;;
19664;SDS011;9980;51.020;7.772;2022-07-23T07:41:53;4.63;;;3.93;;
19664;SDS011;9980;51.020;7.772;2022-07-23T07:44:20;4.57;;;3.53;;
19664;SDS011;9980;51.020;7.772;2022-07-23T07:46:47;3.40;;;3.10;;
19664;SDS011;9980;51.020;7.772;2022-07-23T07:49:14;4.60;;;3.20;;
19664;SDS011;9980;51.020;7.772;2022-07-23T07:51:47;5.00;;;3.47;;
19664;SDS011;9980;51.020;7.772;2022-07-23T07:54:14;3.80;;;3.10;;
19664;SDS011;9980;51.020;7.772;2022-07-23T07:56:41;4.90;;;3.63;;
19664;SDS011;9980;51.020;7.772;2022-07-23T07:59:08;5.07;;;2.97;;
19664;SDS011;9980;51.020;7.772;2022-07-23T08:01:37;3.77;;;3.00;;
19664;SDS011;9980;51.020;7.772;2022-07-23T08:04:04;2.63;;;2.43;;
19664;SDS011;9980;51.020;7.772;2022-07-23T08:06:32;4.95;;;3.13;;
19664;SDS011;9980;51.020;7.772;2022-07-23T08:08:59;9.70;;;4.38;;
19664;SDS011;9980;51.020;7.772;2022-07-23T08:11:26;5.23;;;3.00;;
19664;SDS011;9980;51.020;7.772;2022-07-23T08:13:52;4.63;;;3.35;;
19664;SDS011;9980;51.020;7.772;2022-07-23T08:16:19;5.07;;;2.85;;
19664;SDS011;9980;51.020;7.772;2022-07-23T08:18:46;4.20;;;2.92;;
19664;SDS011;9980;51.020;7.772;2022-07-23T08:21:13;3.78;;;3.22;;
19664;SDS011;9980;51.020;7.772;2022-07-23T08:23:40;2.95;;;2.65;;
19664;SDS011;9980;51.020;7.772;2022-07-23T08:26:07;3.55;;;2.85;;
19664;SDS011;9980;51.020;7.772;2022-07-23T08:28:34;3.85;;;2.38;;
19664;SDS011;9980;51.020;7.772;2022-07-23T08:31:01;3.25;;;2.35;;
19664;SDS011;9980;51.020;7.772;2022-07-23T08:33:31;4.22;;;2.30;;
19664;SDS011;9980;51.020;7.772;2022-07-23T08:36:02;3.10;;;1.80;;
19664;SDS011;9980;51.020;7.772;2022-07-23T08:38:31;5.00;;;2.63;;
19664;SDS011;9980;51.020;7.772;2022-07-23T08:40:59;5.88;;;2.30;;
19664;SDS011;9980;51.020;7.772;2022-07-23T08:43:28;2.72;;;1.90;;
19664;SDS011;9980;51.020;7.772;2022-07-23T08:45:57;3.88;;;1.85;;
19664;SDS011;9980;51.020;7.772;2022-07-23T08:48:28;2.80;;;2.00;;
19664;SDS011;9980;51.020;7.772;2022-07-23T08:50:59;5.05;;;2.20;;
19664;SDS011;9980;51.020;7.772;2022-07-23T08:53:29;1.70;;;1.60;;
19664;SDS011;9980;51.020;7.772;2022-07-23T08:55:59;4.65;;;1.73;;
19664;SDS011;9980;51.020;7.772;2022-07-23T08:58:28;6.22;;;2.78;;
19664;SDS011;9980;51.020;7.772;2022-07-23T09:00:55;5.00;;;2.10;;
19664;SDS011;9980;51.020;7.772;2022-07-23T09:03:31;2.67;;;2.00;;
19664;SDS011;9980;51.020;7.772;2022-07-23T09:06:01;1.95;;;1.70;;
19664;SDS011;9980;51.020;7.772;2022-07-23T09:11:08;3.00;;;2.00;;
19664;SDS011;9980;51.020;7.772;2022-07-23T09:13:49;2.80;;;1.77;;
19664;SDS011;9980;51.020;7.772;2022-07-23T09:16:27;1.90;;;1.58;;
19664;SDS011;9980;51.020;7.772;2022-07-23T09:21:27;3.25;;;2.17;;
19664;SDS011;9980;51.020;7.772;2022-07-23T09:23:57;2.15;;;1.88;;
19664;SDS011;9980;51.020;7.772;2022-07-23T09:31:43;3.47;;;2.30;;
19664;SDS011;9980;51.020;7.772;2022-07-23T09:34:19;2.30;;;2.10;;
19664;SDS011;9980;51.020;7.772;2022-07-23T09:36:57;1.90;;;1.67;;
19664;SDS011;9980;51.020;7.772;2022-07-23T09:39:36;5.00;;;2.38;;
19664;SDS011;9980;51.020;7.772;2022-07-23T09:44:50;2.15;;;1.75;;
19664;SDS011;9980;51.020;7.772;2022-07-23T09:47:20;2.83;;;2.25;;
19664;SDS011;9980;51.020;7.772;2022-07-23T09:50:03;3.60;;;2.30;;
19664;SDS011;9980;51.020;7.772;2022-07-23T09:55:14;2.20;;;1.80;;
19664;SDS011;9980;51.020;7.772;2022-07-23T09:57:44;3.85;;;1.85;;
19664;SDS011;9980;51.020;7.772;2022-07-23T10:00:16;3.47;;;1.88;;
19664;SDS011;9980;51.020;7.772;2022-07-23T10:02:43;2.55;;;1.98;;
19664;SDS011;9980;51.020;7.772;2022-07-23T10:05:42;18.50;;;2.33;;
19664;SDS011;9980;51.020;7.772;2022-07-23T10:08:34;3.65;;;1.45;;
19664;SDS011;9980;51.020;7.772;2022-07-23T10:11:11;4.90;;;1.83;;
19664;SDS011;9980;51.020;7.772;2022-07-23T10:13:53;2.20;;;1.98;;
19664;SDS011;9980;51.020;7.772;2022-07-23T10:16:50;4.25;;;1.70;;
19664;SDS011;9980;51.020;7.772;2022-07-23T10:19:18;2.15;;;1.80;;
19664;SDS011;9980;51.020;7.772;2022-07-23T10:21:46;3.75;;;1.70;;
19664;SDS011;9980;51.020;7.772;2022-07-23T10:30:30;4.82;;;1.67;;
19664;SDS011;9980;51.020;7.772;2022-07-23T10:33:38;1.35;;;1.20;;
19664;SDS011;9980;51.020;7.772;2022-07-23T10:36:27;1.73;;;1.25;;
19664;SDS011;9980;51.020;7.772;2022-07-23T10:39:05;3.58;;;1.67;;
19664;SDS011;9980;51.020;7.772;2022-07-23T10:41:45;10.48;;;3.42;;
19664;SDS011;9980;51.020;7.772;2022-07-23T10:44:12;3.13;;;1.80;;
19664;SDS011;9980;51.020;7.772;2022-07-23T10:46:56;3.70;;;1.80;;
19664;SDS011;9980;51.020;7.772;2022-07-23T10:49:32;5.15;;;1.95;;
19664;SDS011;9980;51.020;7.772;2022-07-23T10:54:44;2.42;;;1.80;;
19664;SDS011;9980;51.020;7.772;2022-07-23T10:57:48;2.28;;;1.63;;
19664;SDS011;9980;51.020;7.772;2022-07-23T11:00:20;3.42;;;1.90;;
19664;SDS011;9980;51.020;7.772;2022-07-23T11:02:58;3.33;;;1.58;;
19664;SDS011;9980;51.020;7.772;2022-07-23T11:05:41;1.73;;;1.63;;
19664;SDS011;9980;51.020;7.772;2022-07-23T11:08:17;2.75;;;1.77;;
19664;SDS011;9980;51.020;7.772;2022-07-23T11:10:47;9.23;;;4.25;;
19664;SDS011;9980;51.020;7.772;2022-07-23T11:24:08;2.40;;;1.85;;
19664;SDS011;9980;51.020;7.772;2022-07-23T11:32:00;1.90;;;1.80;;
19664;SDS011;9980;51.020;7.772;2022-07-23T11:37:03;3.65;;;2.53;;
19664;SDS011;9980;51.020;7.772;2022-07-23T11:39:33;5.10;;;2.55;;
19664;SDS011;9980;51.020;7.772;2022-07-23T11:42:02;3.15;;;2.30;;
19664;SDS011;9980;51.020;7.772;2022-07-23T11:47:05;2.40;;;2.08;;
19664;SDS011;9980;51.020;7.772;2022-07-23T11:49:35;3.25;;;2.50;;
19664;SDS011;9980;51.020;7.772;2022-07-23T11:52:07;6.68;;;2.90;;
19664;SDS011;9980;51.020;7.772;2022-07-23T11:54:46;3.80;;;2.65;;
19664;SDS011;9980;51.020;7.772;2022-07-23T11:57:19;6.55;;;2.70;;
19664;SDS011;9980;51.020;7.772;2022-07-23T11:59:53;5.60;;;2.55;;
19664;SDS011;9980;51.020;7.772;2022-07-23T12:02:40;34.58;;;9.82;;
19664;SDS011;9980;51.020;7.772;2022-07-23T12:05:23;3.15;;;2.33;;
19664;SDS011;9980;51.020;7.772;2022-07-23T12:07:54;3.47;;;2.85;;
19664;SDS011;9980;51.020;7.772;2022-07-23T12:10:26;2.65;;;2.45;;
19664;SDS011;9980;51.020;7.772;2022-07-23T12:12:58;2.72;;;2.53;;
19664;SDS011;9980;51.020;7.772;2022-07-23T12:15:38;4.13;;;2.78;;
19664;SDS011;9980;51.020;7.772;2022-07-23T12:18:10;4.13;;;2.90;;
19664;SDS011;9980;51.020;7.772;2022-07-23T12:20:41;3.15;;;2.85;;
19664;SDS011;9980;51.020;7.772;2022-07-23T12:23:11;3.33;;;3.03;;
19664;SDS011;9980;51.020;7.772;2022-07-23T12:25:46;4.72;;;3.30;;
19664;SDS011;9980;51.020;7.772;2022-07-23T12:30:52;3.55;;;3.28;;
19664;SDS011;9980;51.020;7.772;2022-07-23T12:33:28;3.83;;;3.42;;
19664;SDS011;9980;51.020;7.772;2022-07-23T12:36:02;11.75;;;4.93;;
19664;SDS011;9980;51.020;7.772;2022-07-23T12:38:37;3.08;;;2.78;;
19664;SDS011;9980;51.020;7.772;2022-07-23T12:41:06;6.55;;;3.65;;
19664;SDS011;9980;51.020;7.772;2022-07-23T12:43:35;3.72;;;3.38;;
19664;SDS011;9980;51.020;7.772;2022-07-23T12:46:10;11.40;;;4.85;;
19664;SDS011;9980;51.020;7.772;2022-07-23T12:48:49;4.20;;;3.65;;
19664;SDS011;9980;51.020;7.772;2022-07-23T12:51:25;7.88;;;3.72;;
19664;SDS011;9980;51.020;7.772;2022-07-23T12:53:57;3.50;;;3.20;;
19664;SDS011;9980;51.020;7.772;2022-07-23T12:56:33;3.70;;;2.97;;
19664;SDS011;9980;51.020;7.772;2022-07-23T12:59:08;7.70;;;3.70;;
19664;SDS011;9980;51.020;7.772;2022-07-23T13:01:41;9.48;;;4.80;;
19664;SDS011;9980;51.020;7.772;2022-07-23T13:04:22;3.78;;;3.22;;
19664;SDS011;9980;51.020;7.772;2022-07-23T13:06:55;3.72;;;3.08;;
19664;SDS011;9980;51.020;7.772;2022-07-23T13:09:30;4.32;;;3.67;;
19664;SDS011;9980;51.020;7.772;2022-07-23T13:12:07;3.97;;;3.63;;
19664;SDS011;9980;51.020;7.772;2022-07-23T13:14:36;3.65;;;3.35;;
19664;SDS011;9980;51.020;7.772;2022-07-23T13:17:04;3.97;;;3.58;;
19664;SDS011;9980;51.020;7.772;2022-07-23T13:19:32;3.78;;;3.38;;
19664;SDS011;9980;51.020;7.772;2022-07-23T13:22:00;3.40;;;3.10;;
19664;SDS011;9980;51.020;7.772;2022-07-23T13:24:34;6.30;;;3.58;;
19664;SDS011;9980;51.020;7.772;2022-07-23T13:27:04;5.18;;;3.60;;
19664;SDS011;9980;51.020;7.772;2022-07-23T13:29:36;6.07;;;3.53;;
19664;SDS011;9980;51.020;7.772;2022-07-23T13:32:03;4.35;;;3.50;;
19664;SDS011;9980;51.020;7.772;2022-07-23T13:34:39;5.93;;;4.07;;
19664;SDS011;9980;51.020;7.772;2022-07-23T13:37:07;3.85;;;3.50;;
19664;SDS011;9980;51.020;7.772;2022-07-23T13:39:35;5.65;;;3.88;;
19664;SDS011;9980;51.020;7.772;2022-07-23T13:42:04;4.45;;;3.97;;
19664;SDS011;9980;51.020;7.772;2022-07-23T13:44:32;7.82;;;4.35;;
19664;SDS011;9980;51.020;7.772;2022-07-23T13:47:02;5.95;;;4.00;;
19664;SDS011;9980;51.020;7.772;2022-07-23T13:49:30;4.10;;;3.78;;
19664;SDS011;9980;51.020;7.772;2022-07-23T13:51:57;6.60;;;4.47;;
19664;SDS011;9980;51.020;7.772;2022-07-23T13:54:24;5.93;;;4.65;;
19664;SDS011;9980;51.020;7.772;2022-07-23T13:56:54;5.00;;;4.60;;
19664;SDS011;9980;51.020;7.772;2022-07-23T13:59:22;6.15;;;5.60;;
19664;SDS011;9980;51.020;7.772;2022-07-23T14:01:52;5.28;;;4.75;;
19664;SDS011;9980;51.020;7.772;2022-07-23T14:04:40;4.45;;;4.05;;
19664;SDS011;9980;51.020;7.772;2022-07-23T14:07:10;5.75;;;5.00;;
19664;SDS011;9980;51.020;7.772;2022-07-23T14:09:37;6.05;;;4.70;;
19664;SDS011;9980;51.020;7.772;2022-07-23T14:12:04;5.03;;;4.70;;
19664;SDS011;9980;51.020;7.772;2022-07-23T14:14:33;5.45;;;5.05;;
19664;SDS011;9980;51.020;7.772;2022-07-23T14:17:03;5.63;;;5.13;;
19664;SDS011;9980;51.020;7.772;2022-07-23T14:19:32;7.93;;;5.15;;
19664;SDS011;9980;51.020;7.772;2022-07-23T14:22:00;5.55;;;5.05;;
19664;SDS011;9980;51.020;7.772;2022-07-23T14:24:27;11.65;;;6.05;;
19664;SDS011;9980;51.020;7.772;2022-07-23T14:27:03;12.95;;;8.18;;
19664;SDS011;9980;51.020;7.772;2022-07-23T14:29:31;5.13;;;4.68;;
19664;SDS011;9980;51.020;7.772;2022-07-23T14:32:00;5.97;;;5.00;;
19664;SDS011;9980;51.020;7.772;2022-07-23T14:34:29;5.18;;;4.68;;
19664;SDS011;9980;51.020;7.772;2022-07-23T14:36:57;7.93;;;5.88;;
19664;SDS011;9980;51.020;7.772;2022-07-23T14:39:24;9.00;;;5.45;;
19664;SDS011;9980;51.020;7.772;2022-07-23T14:41:52;8.70;;;4.47;;
19664;SDS011;9980;51.020;7.772;2022-07-23T14:44:19;7.22;;;5.25;;
19664;SDS011;9980;51.020;7.772;2022-07-23T14:46:46;5.57;;;5.18;;
19664;SDS011;9980;51.020;7.772;2022-07-23T14:49:13;5.20;;;4.70;;
19664;SDS011;9980;51.020;7.772;2022-07-23T14:51:41;5.57;;;4.75;;
19664;SDS011;9980;51.020;7.772;2022-07-23T14:54:09;7.50;;;5.65;;
19664;SDS011;9980;51.020;7.772;2022-07-23T14:56:37;5.55;;;5.05;;
19664;SDS011;9980;51.020;7.772;2022-07-23T14:59:05;7.85;;;5.82;;
19664;SDS011;9980;51.020;7.772;2022-07-23T15:01:32;5.50;;;4.93;;
19664;SDS011;9980;51.020;7.772;2022-07-23T15:04:00;5.05;;;4.68;;
19664;SDS011;9980;51.020;7.772;2022-07-23T15:06:47;4.55;;;4.05;;
19664;SDS011;9980;51.020;7.772;2022-07-23T15:09:15;9.48;;;5.95;;
19664;SDS011;9980;51.020;7.772;2022-07-23T15:11:42;4.88;;;4.47;;
19664;SDS011;9980;51.020;7.772;2022-07-23T15:14:11;8.63;;;6.35;;
19664;SDS011;9980;51.020;7.772;2022-07-23T15:16:49;9.18;;;5.47;;
19664;SDS011;9980;51.020;7.772;2022-07-23T15:27:33;4.40;;;4.10;;
19664;SDS011;9980;51.020;7.772;2022-07-23T15:30:00;5.50;;;5.00;;
19664;SDS011;9980;51.020;7.772;2022-07-23T15:32:27;5.32;;;4.65;;
19664;SDS011;9980;51.020;7.772;2022-07-23T15:34:54;11.00;;;6.40;;
19664;SDS011;9980;51.020;7.772;2022-07-23T15:37:22;5.00;;;4.60;;
19664;SDS011;9980;51.020;7.772;2022-07-23T15:39:50;6.28;;;4.70;;
19664;SDS011;9980;51.020;7.772;2022-07-23T15:42:18;5.47;;;5.00;;
19664;SDS011;9980;51.020;7.772;2022-07-23T15:44:45;4.82;;;4.43;;
19664;SDS011;9980;51.020;7.772;2022-07-23T15:47:14;6.15;;;4.20;;
19664;SDS011;9980;51.020;7.772;2022-07-23T15:49:44;4.63;;;4.25;;
19664;SDS011;9980;51.020;7.772;2022-07-23T15:52:12;7.57;;;5.68;;
19664;SDS011;9980;51.020;7.772;2022-07-23T15:54:39;5.10;;;4.70;;
19664;SDS011;9980;51.020;7.772;2022-07-23T15:57:07;4.68;;;4.38;;
19664;SDS011;9980;51.020;7.772;2022-07-23T15:59:35;4.63;;;4.32;;
19664;SDS011;9980;51.020;7.772;2022-07-23T16:02:02;4.82;;;4.40;;
19664;SDS011;9980;51.020;7.772;2022-07-23T16:04:31;4.82;;;4.43;;